createdAt,value
2022-09-20T00:01:20.952Z,101036.22
2022-09-20T00:03:52.085Z,101035.50
2022-09-20T00:06:27.139Z,101035.72
2022-09-20T00:08:55.507Z,101034.75
2022-09-20T00:11:26.859Z,101047.06
2022-09-20T00:13:56.970Z,101036.31
2022-09-20T00:16:27.239Z,101044.50
2022-09-20T00:18:57.030Z,101045.25
2022-09-20T00:21:27.104Z,101044.09
2022-09-20T00:23:56.665Z,101038.84
2022-09-20T00:26:26.136Z,101046.72
2022-09-20T00:28:54.259Z,101046.16
2022-09-20T00:31:22.228Z,101047.97
2022-09-20T00:34:07.588Z,101044.69
2022-09-20T00:36:35.523Z,101045.34
2022-09-20T00:39:04.704Z,101046.28
2022-09-20T00:41:34.544Z,101049.94
2022-09-20T00:44:03.922Z,101049.19
2022-09-20T00:46:37.764Z,101051.53
2022-09-20T00:49:13.640Z,101055.00
2022-09-20T00:51:46.098Z,101051.94
2022-09-20T00:54:20.270Z,101055.22
2022-09-20T00:56:50.619Z,101049.84
2022-09-20T00:59:22.730Z,101052.59
2022-09-20T01:01:54.880Z,101051.19
2022-09-20T01:04:27.103Z,101056.03
2022-09-20T01:06:58.832Z,101052.88
2022-09-20T01:09:27.054Z,101060.00
2022-09-20T01:11:58.049Z,101050.44
2022-09-20T01:14:27.308Z,101053.72
2022-09-20T01:16:57.442Z,101055.47
2022-09-20T01:19:36.119Z,101057.22
2022-09-20T01:22:09.033Z,101047.41
2022-09-20T01:24:45.825Z,101045.69
2022-09-20T01:27:23.313Z,101047.13
2022-09-20T01:30:06.307Z,101048.41
2022-09-20T01:32:46.231Z,101044.41
2022-09-20T01:35:15.967Z,101045.91
2022-09-20T01:37:57.559Z,101049.69
2022-09-20T01:40:32.753Z,101051.25
2022-09-20T01:43:09.038Z,101048.03
2022-09-20T01:45:46.077Z,101054.81
2022-09-20T01:48:26.454Z,101047.69
2022-09-20T01:51:31.085Z,101057.44
2022-09-20T01:54:21.645Z,101062.75
2022-09-20T01:57:14.356Z,101061.84
2022-09-20T02:00:01.781Z,101061.41
2022-09-20T02:03:12.311Z,101067.50
2022-09-20T02:06:04.289Z,101070.13
2022-09-20T02:08:57.138Z,101066.66
2022-09-20T02:11:38.191Z,101073.13
2022-09-20T02:14:24.356Z,101064.63
2022-09-20T02:16:56.666Z,101070.00
2022-09-20T02:19:40.598Z,101074.84
2022-09-20T02:22:29.894Z,101074.59
2022-09-20T02:25:09.150Z,101077.63
2022-09-20T02:27:48.512Z,101077.22
2022-09-20T02:30:27.412Z,101073.97
2022-09-20T02:33:12.147Z,101077.09
2022-09-20T02:35:53.414Z,101078.88
2022-09-20T02:38:33.262Z,101080.56
2022-09-20T02:41:15.562Z,101084.94
2022-09-20T02:43:50.630Z,101081.19
2022-09-20T02:46:25.222Z,101096.50
2022-09-20T02:49:02.723Z,101088.31
2022-09-20T02:51:40.262Z,101091.69
2022-09-20T02:54:19.988Z,101085.97
2022-09-20T02:56:57.678Z,101090.84
2022-09-20T02:59:32.919Z,101089.72
2022-09-20T03:02:11.882Z,101090.00
2022-09-20T03:04:49.322Z,101097.13
2022-09-20T03:07:26.867Z,101091.28
2022-09-20T03:10:06.785Z,101089.91
2022-09-20T03:12:43.603Z,101089.91
2022-09-20T03:15:19.717Z,101095.97
2022-09-20T03:17:52.609Z,101101.22
2022-09-20T03:20:32.273Z,101099.47
2022-09-20T03:23:10.938Z,101103.69
2022-09-20T03:25:56.164Z,101105.84
2022-09-20T03:28:46.538Z,101100.88
2022-09-20T03:31:28.443Z,101113.53
2022-09-20T03:34:07.471Z,101112.88
2022-09-20T03:36:52.996Z,101114.94
2022-09-20T03:39:39.068Z,101109.38
2022-09-20T03:42:15.982Z,101118.69
2022-09-20T03:45:26.178Z,101122.16
2022-09-20T03:48:06.948Z,101116.63
2022-09-20T03:50:51.695Z,101118.09
2022-09-20T03:53:29.710Z,101108.53
2022-09-20T03:56:18.698Z,101116.69
2022-09-20T03:59:09.008Z,101107.81
2022-09-20T04:01:54.476Z,101110.88
2022-09-20T04:04:28.054Z,101115.00
2022-09-20T04:07:12.524Z,101114.78
2022-09-20T04:10:14.650Z,101117.00
2022-09-20T04:12:56.968Z,101129.50
2022-09-20T04:15:36.559Z,101127.31
2022-09-20T04:18:13.478Z,101131.28
2022-09-20T04:20:47.090Z,101122.38
2022-09-20T04:23:26.776Z,101130.41
2022-09-20T04:25:54.938Z,101127.31
2022-09-20T04:28:29.555Z,101131.94
2022-09-20T04:31:08.075Z,101126.16
2022-09-20T04:33:42.658Z,101132.69
2022-09-20T04:36:29.287Z,101130.69
2022-09-20T04:39:06.114Z,101129.84
2022-09-20T04:42:07.951Z,101137.09
2022-09-20T04:45:23.847Z,101135.41
2022-09-20T04:48:05.577Z,101129.50
2022-09-20T04:51:06.203Z,101130.91
2022-09-20T04:53:53.947Z,101135.31
2022-09-20T04:56:28.971Z,101134.47
2022-09-20T04:59:06.745Z,101132.78
2022-09-20T05:02:24.361Z,101139.28
2022-09-20T05:05:42.804Z,101144.78
2022-09-20T05:08:42.747Z,101138.03
2022-09-20T05:11:42.264Z,101144.97
2022-09-20T05:14:28.648Z,101156.34
2022-09-20T05:17:14.725Z,101153.31
2022-09-20T05:19:55.939Z,101164.97
2022-09-20T05:22:57.545Z,101170.88
2022-09-20T05:25:44.271Z,101171.22
2022-09-20T05:28:21.786Z,101167.09
2022-09-20T05:30:54.105Z,101168.50
2022-09-20T05:33:26.616Z,101181.41
2022-09-20T05:36:05.718Z,101181.56
2022-09-20T05:38:47.223Z,101185.91
2022-09-20T05:41:26.681Z,101189.81
2022-09-20T05:43:59.536Z,101185.13
2022-09-20T05:46:36.096Z,101192.84
2022-09-20T05:49:17.986Z,101195.19
2022-09-20T05:52:04.752Z,101196.56
2022-09-20T05:54:58.011Z,101198.69
2022-09-20T05:57:40.220Z,101201.53
2022-09-20T06:00:14.239Z,101203.44
2022-09-20T06:02:51.215Z,101209.13
2022-09-20T06:05:30.625Z,101208.47
2022-09-20T06:08:16.574Z,101215.59
2022-09-20T06:11:33.193Z,101219.72
2022-09-20T06:14:15.599Z,101225.19
2022-09-20T06:16:50.069Z,101221.22
2022-09-20T06:19:28.344Z,101225.91
2022-09-20T06:22:03.624Z,101226.34
2022-09-20T06:24:40.166Z,101236.59
2022-09-20T06:27:14.952Z,101244.69
2022-09-20T06:29:49.053Z,101226.81
2022-09-20T06:32:54.255Z,101231.97
2022-09-20T06:35:25.819Z,101234.41
2022-09-20T06:38:18.404Z,101233.13
2022-09-20T06:41:07.277Z,101227.22
2022-09-20T06:43:40.442Z,101234.63
2022-09-20T06:46:08.716Z,101236.72
2022-09-20T06:48:39.874Z,101236.72
2022-09-20T06:51:09.245Z,101240.19
2022-09-20T06:53:41.177Z,101243.47
2022-09-20T06:56:10.430Z,101244.91
2022-09-20T06:58:39.640Z,101250.81
2022-09-20T07:01:07.479Z,101246.72
2022-09-20T07:03:35.302Z,101250.31
2022-09-20T07:06:04.355Z,101254.31
2022-09-20T07:08:32.313Z,101256.97
2022-09-20T07:11:07.213Z,101252.63
2022-09-20T07:13:35.018Z,101256.53
2022-09-20T07:16:06.654Z,101262.22
2022-09-20T07:18:35.318Z,101264.41
2022-09-20T07:21:06.282Z,101264.22
2022-09-20T07:23:34.370Z,101263.16
2022-09-20T07:26:02.194Z,101271.97
2022-09-20T07:28:30.976Z,101269.56
2022-09-20T07:30:58.935Z,101276.81
2022-09-20T07:33:28.168Z,101271.16
2022-09-20T07:35:56.686Z,101274.50
2022-09-20T07:38:25.309Z,101284.63
2022-09-20T07:40:57.854Z,101282.06
2022-09-20T07:43:26.299Z,101279.88
2022-09-20T07:45:56.037Z,101285.78
2022-09-20T07:48:25.789Z,101285.38
2022-09-20T07:50:57.148Z,101285.59
2022-09-20T07:53:25.064Z,101286.31
2022-09-20T07:56:00.387Z,101287.81
2022-09-20T07:58:28.666Z,101297.00
2022-09-20T08:00:58.172Z,101296.38
2022-09-20T08:03:26.848Z,101290.56
2022-09-20T08:06:01.640Z,101296.25
2022-09-20T08:08:32.565Z,101296.75
2022-09-20T08:11:06.456Z,101295.06
2022-09-20T08:16:30.107Z,101303.72
2022-09-20T08:18:59.585Z,101299.25
2022-09-20T08:21:32.108Z,101308.09
2022-09-20T08:24:00.699Z,101309.94
2022-09-20T08:26:31.042Z,101306.47
2022-09-20T08:29:00.053Z,101310.84
2022-09-20T08:31:31.346Z,101310.63
2022-09-20T08:34:03.578Z,101316.00
2022-09-20T08:36:36.782Z,101316.09
2022-09-20T08:41:58.056Z,101319.56
2022-09-20T08:44:28.806Z,101322.78
2022-09-20T08:47:09.891Z,101318.25
2022-09-20T08:49:39.085Z,101328.97
2022-09-20T08:52:17.520Z,101329.66
2022-09-20T08:54:45.462Z,101325.78
2022-09-20T08:57:16.838Z,101332.09
2022-09-20T08:59:44.918Z,101328.25
2022-09-20T09:02:17.310Z,101331.56
2022-09-20T09:04:45.850Z,101334.44
2022-09-20T09:07:19.899Z,101343.56
2022-09-20T09:09:48.828Z,101330.44
2022-09-20T09:12:22.744Z,101330.91
2022-09-20T09:14:55.886Z,101333.97
2022-09-20T09:17:27.936Z,101333.63
2022-09-20T09:19:57.314Z,101334.50
2022-09-20T09:22:35.192Z,101335.28
2022-09-20T09:25:11.579Z,101331.94
2022-09-20T09:27:52.047Z,101326.69
2022-09-20T09:30:22.496Z,101329.56
2022-09-20T09:32:50.815Z,101328.50
2022-09-20T09:35:26.808Z,101333.06
2022-09-20T09:37:58.383Z,101332.69
2022-09-20T09:40:27.609Z,101332.34
2022-09-20T09:42:57.559Z,101335.03
2022-09-20T09:45:32.494Z,101329.03
2022-09-20T09:48:17.741Z,101330.22
2022-09-20T09:50:45.665Z,101324.94
2022-09-20T09:53:16.910Z,101333.38
2022-09-20T09:56:14.158Z,101327.81
2022-09-20T09:58:58.343Z,101325.66
2022-09-20T10:01:35.269Z,101319.41
2022-09-20T10:04:11.112Z,101318.94
2022-09-20T10:06:48.368Z,101324.91
2022-09-20T10:09:30.878Z,101316.41
2022-09-20T10:12:15.609Z,101325.53
2022-09-20T10:14:57.235Z,101322.16
2022-09-20T10:17:43.371Z,101315.25
2022-09-20T10:20:31.163Z,101320.91
2022-09-20T10:26:09.012Z,101323.72
2022-09-20T10:28:50.734Z,101316.69
2022-09-20T10:31:40.667Z,101314.03
2022-09-20T10:34:26.992Z,101316.03
2022-09-20T10:36:57.683Z,101327.69
2022-09-20T10:39:32.324Z,101335.75
2022-09-20T10:42:27.253Z,101330.97
2022-09-20T10:45:02.880Z,101332.31
2022-09-20T10:47:35.847Z,101337.03
2022-09-20T10:50:13.737Z,101341.63
2022-09-20T10:52:54.136Z,101335.88
2022-09-20T10:55:33.865Z,101343.47
2022-09-20T10:58:38.183Z,101357.25
2022-09-20T11:01:20.137Z,101362.97
2022-09-20T11:04:07.505Z,101369.78
2022-09-20T11:06:49.570Z,101366.66
2022-09-20T11:09:23.387Z,101361.69
2022-09-20T11:11:58.228Z,101363.88
2022-09-20T11:14:34.580Z,101389.09
2022-09-20T11:17:09.656Z,101406.66
2022-09-20T11:19:49.180Z,101428.03
2022-09-20T11:22:22.606Z,101405.38
2022-09-20T11:24:56.373Z,101423.81
2022-09-20T11:27:29.639Z,101408.81
2022-09-20T11:30:02.992Z,101402.44
2022-09-20T11:32:36.705Z,101398.09
2022-09-20T11:35:15.751Z,101401.69
2022-09-20T11:37:48.569Z,101396.31
2022-09-20T11:40:23.050Z,101397.63
2022-09-20T11:42:52.745Z,101397.88
2022-09-20T11:45:27.591Z,101401.91
2022-09-20T11:48:01.361Z,101405.28
2022-09-20T11:51:23.169Z,101403.31
2022-09-20T11:54:06.344Z,101398.38
2022-09-20T11:56:35.315Z,101400.53
2022-09-20T11:59:07.251Z,101406.94
2022-09-20T12:01:39.130Z,101410.09
2022-09-20T12:04:31.973Z,101403.41
2022-09-20T12:07:09.415Z,101405.72
2022-09-20T12:09:42.013Z,101410.50
2022-09-20T12:12:20.526Z,101406.22
2022-09-20T12:14:56.021Z,101412.75
2022-09-20T12:18:08.385Z,101406.66
2022-09-20T12:21:03.653Z,101407.31
2022-09-20T12:24:03.357Z,101422.53
2022-09-20T12:26:43.482Z,101409.19
2022-09-20T12:29:55.546Z,101416.06
2022-09-20T12:32:44.888Z,101413.09
2022-09-20T12:36:02.691Z,101415.94
2022-09-20T12:38:46.313Z,101416.84
2022-09-20T12:41:26.041Z,101409.03
2022-09-20T12:44:05.844Z,101414.56
2022-09-20T12:46:43.086Z,101417.75
2022-09-20T12:49:54.169Z,101415.41
2022-09-20T12:52:42.922Z,101412.78
2022-09-20T12:55:14.095Z,101413.53
2022-09-20T12:57:42.290Z,101419.66
2022-09-20T13:00:31.948Z,101417.34
2022-09-20T13:03:01.917Z,101414.19
2022-09-20T13:05:38.098Z,101422.56
2022-09-20T13:08:20.240Z,101412.63
2022-09-20T13:11:03.459Z,101439.84
2022-09-20T13:13:41.003Z,101425.09
2022-09-20T13:16:20.100Z,101438.78
2022-09-20T13:18:48.812Z,101439.97
2022-09-20T13:21:16.790Z,101449.97
2022-09-20T13:23:50.012Z,101458.03
2022-09-20T13:26:27.476Z,101450.47
2022-09-20T13:28:57.986Z,101455.50
2022-09-20T13:31:35.689Z,101448.59
2022-09-20T13:34:21.671Z,101448.03
2022-09-20T13:36:56.419Z,101441.53
2022-09-20T13:39:36.253Z,101450.34
2022-09-20T13:42:22.333Z,101448.53
2022-09-20T13:44:50.679Z,101449.16
2022-09-20T13:47:27.514Z,101457.78
2022-09-20T13:50:04.062Z,101448.56
2022-09-20T13:52:34.313Z,101452.25
2022-09-20T13:55:24.999Z,101451.97
2022-09-20T13:57:58.830Z,101457.56
2022-09-20T14:00:27.617Z,101459.97
2022-09-20T14:02:56.541Z,101457.44
2022-09-20T14:05:28.830Z,101454.09
2022-09-20T14:07:57.724Z,101465.88
2022-09-20T14:10:34.692Z,101459.47
2022-09-20T14:13:07.411Z,101460.56
2022-09-20T14:15:38.558Z,101463.00
2022-09-20T14:18:10.678Z,101463.84
2022-09-20T14:20:39.254Z,101462.38
2022-09-20T14:23:07.539Z,101466.59
2022-09-20T14:25:35.617Z,101467.44
2022-09-20T14:28:20.569Z,101464.31
2022-09-20T14:30:49.463Z,101461.69
2022-09-20T14:33:20.794Z,101461.19
2022-09-20T14:35:51.247Z,101467.19
2022-09-20T14:38:24.493Z,101463.72
2022-09-20T14:40:52.871Z,101460.47
2022-09-20T14:43:31.353Z,101466.59
2022-09-20T14:46:01.845Z,101466.00
2022-09-20T14:48:37.595Z,101462.75
2022-09-20T14:51:25.629Z,101462.94
2022-09-20T14:54:17.849Z,101461.28
2022-09-20T14:56:51.059Z,101469.41
2022-09-20T14:59:27.225Z,101468.22
2022-09-20T15:02:04.430Z,101479.56
2022-09-20T15:04:35.795Z,101478.13
2022-09-20T15:07:06.459Z,101476.00
2022-09-20T15:09:36.361Z,101490.19
2022-09-20T15:12:07.329Z,101500.19
2022-09-20T15:14:38.184Z,101490.78
2022-09-20T15:17:07.619Z,101494.63
2022-09-20T15:19:36.972Z,101503.91
2022-09-20T15:22:06.305Z,101502.31
2022-09-20T15:24:34.995Z,101502.81
2022-09-20T15:27:03.748Z,101513.75
2022-09-20T15:29:32.624Z,101513.75
2022-09-20T15:32:03.209Z,101519.50
2022-09-20T15:34:31.404Z,101518.56
2022-09-20T15:36:59.955Z,101516.88
2022-09-20T15:39:28.175Z,101512.34
2022-09-20T15:41:56.390Z,101523.19
2022-09-20T15:45:13.715Z,101523.19
2022-09-20T15:47:44.846Z,101515.03
2022-09-20T15:50:15.759Z,101513.84
2022-09-20T15:52:44.776Z,101511.69
2022-09-20T15:55:13.815Z,101517.31
2022-09-20T15:57:48.713Z,101529.53
2022-09-20T16:00:19.804Z,101519.38
2022-09-20T16:02:51.170Z,101517.03
2022-09-20T16:05:19.134Z,101517.03
2022-09-20T16:07:48.449Z,101511.78
2022-09-20T16:10:16.472Z,101508.84
2022-09-20T16:12:51.884Z,101512.19
2022-09-20T16:15:20.111Z,101522.66
2022-09-20T16:18:15.431Z,101529.19
2022-09-20T16:20:46.244Z,101533.72
2022-09-20T16:23:17.856Z,101533.16
2022-09-20T16:25:50.518Z,101534.84
2022-09-20T16:28:21.153Z,101539.59
2022-09-20T16:30:58.027Z,101534.22
2022-09-20T16:33:28.292Z,101533.69
2022-09-20T16:35:57.420Z,101524.44
2022-09-20T16:38:26.256Z,101539.13
2022-09-20T16:40:55.852Z,101539.81
2022-09-20T16:43:26.466Z,101537.84
2022-09-20T16:46:01.646Z,101531.97
2022-09-20T16:48:32.297Z,101531.00
2022-09-20T16:51:01.568Z,101532.00
2022-09-20T16:53:30.465Z,101534.56
2022-09-20T16:55:58.949Z,101546.19
2022-09-20T16:58:31.132Z,101544.06
2022-09-20T17:01:04.806Z,101545.63
2022-09-20T17:03:35.046Z,101541.13
2022-09-20T17:06:04.240Z,101552.00
2022-09-20T17:08:38.913Z,101558.41
2022-09-20T17:11:10.839Z,101551.22
2022-09-20T17:13:41.530Z,101552.47
2022-09-20T17:16:11.700Z,101567.03
2022-09-20T17:18:43.437Z,101562.50
2022-09-20T17:21:14.635Z,101568.03
2022-09-20T17:23:48.677Z,101568.75
2022-09-20T17:26:23.109Z,101575.69
2022-09-20T17:28:53.421Z,101577.78
2022-09-20T17:31:24.415Z,101580.44
2022-09-20T17:33:55.257Z,101581.72
2022-09-20T17:36:23.688Z,101575.19
2022-09-20T17:38:55.505Z,101589.25
2022-09-20T17:41:25.011Z,101596.53
2022-09-20T17:43:56.038Z,101588.59
2022-09-20T17:46:27.287Z,101598.94
2022-09-20T17:48:58.122Z,101596.50
2022-09-20T17:51:28.673Z,101603.03
2022-09-20T17:53:57.123Z,101610.09
2022-09-20T17:56:28.716Z,101603.88
2022-09-20T17:58:57.866Z,101611.03
2022-09-20T18:01:27.784Z,101606.31
2022-09-20T18:04:00.249Z,101609.56
2022-09-20T18:06:30.916Z,101604.69
2022-09-20T18:09:01.617Z,101619.81
2022-09-20T18:11:32.811Z,101615.88
2022-09-20T18:14:02.515Z,101617.88
2022-09-20T18:16:32.016Z,101620.69
2022-09-20T18:19:02.116Z,101626.84
2022-09-20T18:21:33.804Z,101623.44
2022-09-20T18:24:02.597Z,101635.75
2022-09-20T18:26:32.821Z,101630.78
2022-09-20T18:29:03.350Z,101639.50
2022-09-20T18:31:36.257Z,101646.47
2022-09-20T18:34:08.440Z,101643.13
2022-09-20T18:36:39.811Z,101637.22
2022-09-20T18:39:08.904Z,101638.16
2022-09-20T18:41:38.610Z,101647.25
2022-09-20T18:44:08.588Z,101644.28
2022-09-20T18:46:38.943Z,101638.16
2022-09-20T18:49:10.701Z,101637.75
2022-09-20T18:51:40.268Z,101639.25
2022-09-20T18:54:10.484Z,101644.22
2022-09-20T18:56:40.782Z,101646.22
2022-09-20T18:59:15.556Z,101646.41
2022-09-20T19:02:28.297Z,101651.69
2022-09-20T19:05:14.092Z,101656.28
2022-09-20T19:07:53.214Z,101655.53
2022-09-20T19:10:28.475Z,101658.19
2022-09-20T19:13:05.267Z,101658.56
2022-09-20T19:15:56.505Z,101658.97
2022-09-20T19:18:40.576Z,101666.97
2022-09-20T19:21:22.199Z,101668.00
2022-09-20T19:24:08.128Z,101667.53
2022-09-20T19:26:38.676Z,101673.81
2022-09-20T19:29:18.296Z,101676.38
2022-09-20T19:31:49.638Z,101678.44
2022-09-20T19:34:21.731Z,101676.06
2022-09-20T19:37:05.599Z,101678.81
2022-09-20T19:39:44.290Z,101678.06
2022-09-20T19:42:22.303Z,101684.16
2022-09-20T19:45:02.844Z,101685.38
2022-09-20T19:47:38.243Z,101689.53
2022-09-20T19:50:16.254Z,101693.56
2022-09-20T19:52:46.865Z,101693.78
2022-09-20T19:55:16.267Z,101697.63
2022-09-20T19:57:47.270Z,101700.44
2022-09-20T20:00:18.239Z,101704.88
2022-09-20T20:02:47.286Z,101700.25
2022-09-20T20:05:17.694Z,101699.50
2022-09-20T20:07:55.416Z,101702.22
2022-09-20T20:10:31.583Z,101704.59
2022-09-20T20:13:29.550Z,101709.19
2022-09-20T20:16:03.262Z,101715.78
2022-09-20T20:18:39.221Z,101718.31
2022-09-20T20:21:13.808Z,101726.38
2022-09-20T20:24:05.648Z,101727.63
2022-09-20T20:26:33.842Z,101730.59
2022-09-20T20:29:01.711Z,101725.94
2022-09-20T20:31:30.404Z,101728.44
2022-09-20T20:33:58.427Z,101727.38
2022-09-20T20:36:26.380Z,101728.19
2022-09-20T20:38:55.508Z,101730.78
2022-09-20T20:41:23.665Z,101732.28
2022-09-20T20:43:56.250Z,101737.38
2022-09-20T20:46:24.615Z,101744.06
2022-09-20T20:48:52.485Z,101742.66
2022-09-20T20:51:22.165Z,101735.28
2022-09-20T20:53:51.804Z,101736.97
2022-09-20T20:56:22.881Z,101730.66
2022-09-20T20:58:50.959Z,101743.88
2022-09-20T21:01:20.569Z,101743.88
2022-09-20T21:03:50.375Z,101747.88
2022-09-20T21:06:18.569Z,101743.34
2022-09-20T21:08:49.811Z,101751.22
2022-09-20T21:11:20.392Z,101752.38
2022-09-20T21:13:49.543Z,101750.41
2022-09-20T21:16:18.952Z,101758.72
2022-09-20T21:18:48.251Z,101755.78
2022-09-20T21:21:18.060Z,101755.94
2022-09-20T21:23:46.778Z,101753.22
2022-09-20T21:26:15.837Z,101754.34
2022-09-20T21:28:45.663Z,101756.78
2022-09-20T21:31:14.873Z,101757.66
2022-09-20T21:33:44.023Z,101761.56
2022-09-20T21:36:14.075Z,101769.88
2022-09-20T21:38:42.714Z,101770.66
2022-09-20T21:41:12.431Z,101771.72
2022-09-20T21:43:42.593Z,101783.13
2022-09-20T21:46:12.410Z,101779.38
2022-09-20T21:48:41.754Z,101772.59
2022-09-20T21:51:11.541Z,101780.06
2022-09-20T21:53:40.196Z,101789.09
2022-09-20T21:56:09.363Z,101785.06
2022-09-20T21:58:39.988Z,101788.91
2022-09-20T22:01:11.511Z,101789.72
2022-09-20T22:03:42.856Z,101783.94
2022-09-20T22:06:13.389Z,101791.94
2022-09-20T22:08:42.993Z,101799.78
2022-09-20T22:11:15.014Z,101792.66
2022-09-20T22:13:45.567Z,101789.06
2022-09-20T22:16:15.685Z,101791.44
2022-09-20T22:18:46.035Z,101798.66
2022-09-20T22:21:16.418Z,101790.28
2022-09-20T22:23:45.014Z,101796.38
2022-09-20T22:26:15.172Z,101790.44
2022-09-20T22:28:43.421Z,101795.03
2022-09-20T22:31:13.402Z,101804.53
2022-09-20T22:33:42.805Z,101800.13
2022-09-20T22:36:14.162Z,101794.69
2022-09-20T22:38:42.046Z,101798.25
2022-09-20T22:41:10.348Z,101795.28
2022-09-20T22:43:38.425Z,101797.91
2022-09-20T22:46:09.190Z,101799.50
2022-09-20T22:48:37.524Z,101798.34
2022-09-20T22:51:07.068Z,101796.03
2022-09-20T22:53:36.660Z,101800.63
2022-09-20T22:56:06.616Z,101803.31
2022-09-20T22:58:36.169Z,101790.88
2022-09-20T23:01:06.265Z,101799.25
2022-09-20T23:03:34.114Z,101797.03
2022-09-20T23:06:02.900Z,101804.19
2022-09-20T23:08:33.106Z,101798.06
2022-09-20T23:11:04.149Z,101803.50
2022-09-20T23:13:32.199Z,101795.88
2022-09-20T23:16:00.495Z,101798.34
2022-09-20T23:18:28.361Z,101799.09
2022-09-20T23:21:00.642Z,101803.69
2022-09-20T23:23:28.652Z,101802.81
2022-09-20T23:25:56.977Z,101806.31
2022-09-20T23:28:27.279Z,101802.56
2022-09-20T23:30:55.132Z,101807.06
2022-09-20T23:33:23.037Z,101799.75
2022-09-20T23:35:51.526Z,101808.44
2022-09-20T23:38:19.366Z,101819.44
2022-09-20T23:40:47.162Z,101817.03
2022-09-20T23:43:14.899Z,101818.88
2022-09-20T23:45:44.390Z,101818.03
2022-09-20T23:48:12.255Z,101814.72
2022-09-20T23:50:39.972Z,101812.34
2022-09-20T23:53:07.897Z,101819.88
2022-09-20T23:55:35.659Z,101814.19
2022-09-20T23:58:03.376Z,101817.72
